Aviation Digital Data Service (ADDS)

Output produced by METARs form (0155 UTC 25 March 2019)
found at http://www.aviationweather.gov/metar/data/
 
METAR text: LFMK 250130Z AUTO 26009KT CAVOK 12/02 Q1023
Conditions at: LFMK (CARCASSONNE/SALV, FR) observed 0130 UTC 25 March 2019
Temperature: 12.0°C (54°F)
Dewpoint: 2.0°C (36°F) [RH = 50%]
Pressure (altimeter): 30.21 inches Hg (1023.0 mb)
Winds: from the W (260 degrees) at 10 MPH (9 knots; 4.6 m/s)
Visibility: 6 or more miles (10+ km)
Ceiling: ceiling and visibility are OK
Clouds: unknown
Weather: no significant weather observed at this time

Forecast for: LFMK (CARCASSONNE/SALV, FR)
Text: TAF LFMK 241400Z 2415/2515 28012KT CAVOK
Forecast period: 1500 UTC 24 March 2019 to 1500 UTC 25 March 2019
Forecast type: FROM: standard forecast or significant change
Winds: from the W (280 degrees) at 14 MPH (12 knots; 6.2 m/s)
Visibility: 6 or more miles 10+ km)
Ceiling: unknown
Clouds: missing
Weather: NSW  (no significant weather)
Text: TEMPO 2508/2509 27020G35KT
Forecast period: 0800 to 0900 UTC 25 March 2019
Forecast type: TEMPORARY: The following changes expected for less than half the time period
Winds: from the W (270 degrees) at 23 MPH (20 knots; 10.3 m/s)
gusting to 40 MPH (35 knots; 18.0 m/s)
Visibility: missing
Ceiling: unknown
Clouds: missing
Weather: no significant weather forecast for this period